Time;durP1;ratioP1;P1;durP2;ratioP2;P2;SDS_P1;SDS_P2;PMS_P1;PMS_P2;Temp;Humidity;BMP_temperature;BMP_pressure;BME280_temperature;BME280_humidity;BME280_pressure;Samples;Min_cycle;Max_cycle;Signal;HPM_P1;HPM_P2
2022/04/15 00:02:12;;;;;;;6.17;4.90;;;;;;;11.72;47.88;95295.22;5014380;28;20483;-78
2022/04/15 00:04:39;;;;;;;4.73;4.33;;;;;;;11.71;47.85;95291.75;5013922;28;20447;-78
2022/04/15 00:07:10;;;;;;;6.30;4.87;;;;;;;11.69;47.71;95285.81;5014710;28;20458;-78
2022/04/15 00:09:39;;;;;;;6.10;5.50;;;;;;;11.67;48.37;95292.16;5014560;28;20435;-78
2022/04/15 00:12:10;;;;;;;6.10;4.63;;;;;;;11.58;49.36;95303.44;5014382;28;20781;-77
2022/04/15 00:14:37;;;;;;;5.77;5.20;;;;;;;11.61;49.18;95298.75;4965224;28;20533;-77
2022/04/15 00:17:05;;;;;;;6.00;5.07;;;;;;;11.68;48.61;95301.72;5014258;28;20451;-78
2022/04/15 00:19:31;;;;;;;6.80;5.33;;;;;;;11.66;48.98;95303.63;5014604;28;20447;-78
2022/04/15 00:21:58;;;;;;;7.13;4.77;;;;;;;11.74;48.90;95307.28;5014006;28;20483;-78
2022/04/15 00:24:25;;;;;;;10.57;5.27;;;;;;;11.81;49.30;95307.63;4979925;28;20441;-78
2022/04/15 00:26:54;;;;;;;7.00;4.87;;;;;;;11.88;48.74;95313.25;5013812;28;20531;-78
2022/04/15 00:29:21;;;;;;;12.80;5.37;;;;;;;11.87;49.02;95308.94;4979583;28;20439;-77
2022/04/15 00:31:48;;;;;;;8.23;5.23;;;;;;;11.85;49.49;95311.69;5014218;28;20528;-78
2022/04/15 00:34:15;;;;;;;5.83;5.23;;;;;;;11.78;48.89;95302.63;5014197;28;20456;-79
2022/04/15 00:36:42;;;;;;;5.00;4.50;;;;;;;11.74;49.91;95307.28;4963431;28;20786;-78
2022/04/15 00:39:09;;;;;;;6.83;6.03;;;;;;;11.70;49.81;95305.88;5014094;28;20826;-78
2022/04/15 00:41:36;;;;;;;7.10;4.90;;;;;;;11.68;50.58;95310.44;4962935;28;20491;-79
2022/04/15 00:44:04;;;;;;;11.57;6.53;;;;;;;11.69;49.99;95309.47;5013586;28;20451;-78
2022/04/15 00:46:31;;;;;;;8.50;6.13;;;;;;;11.67;51.13;95318.44;4979310;28;20444;-77
2022/04/15 00:48:59;;;;;;;7.00;5.47;;;;;;;11.60;50.85;95318.13;5013587;28;20451;-78
2022/04/15 00:51:26;;;;;;;7.33;5.83;;;;;;;11.37;51.81;95316.53;5014094;28;20447;-77
2022/04/15 00:53:56;;;;;;;8.20;5.63;;;;;;;11.17;52.34;95316.31;5013615;28;20451;-77
2022/04/15 00:56:29;;;;;;;8.03;5.27;;;;;;;11.07;52.17;95320.66;5013592;28;20542;-78
2022/04/15 00:58:59;;;;;;;10.10;6.47;;;;;;;10.92;53.21;95307.91;5013595;28;20517;-78
2022/04/15 01:01:27;;;;;;;6.33;5.70;;;;;;;10.79;53.75;95311.50;5014039;28;20455;-77
2022/04/15 01:03:58;;;;;;;8.70;6.10;;;;;;;10.78;54.28;95315.09;4963656;28;20478;-77
2022/04/15 01:06:31;;;;;;;6.80;5.70;;;;;;;10.76;53.67;95316.16;4963568;28;20462;-78
2022/04/15 01:09:00;;;;;;;8.23;6.37;;;;;;;10.79;54.16;95323.81;5013546;28;20924;-77
2022/04/15 01:11:29;;;;;;;6.70;6.07;;;;;;;10.72;54.84;95320.00;5014197;28;20506;-78
2022/04/15 01:13:59;;;;;;;6.37;5.10;;;;;;;10.75;54.69;95320.59;5013210;28;20992;-78
2022/04/15 01:16:32;;;;;;;9.37;6.07;;;;;;;10.74;54.06;95318.09;5013746;28;20526;-78
2022/04/15 01:18:59;;;;;;;6.90;6.20;;;;;;;10.67;55.31;95322.13;5013720;28;20491;-78
2022/04/15 01:21:28;;;;;;;6.87;5.90;;;;;;;10.70;55.03;95322.75;5013714;28;20454;-77
2022/04/15 01:23:58;;;;;;;7.43;5.90;;;;;;;10.68;55.40;95315.91;5013224;28;20447;-78
2022/04/15 01:26:25;;;;;;;8.57;6.17;;;;;;;10.61;55.43;95315.56;5013623;28;20448;-78
2022/04/15 01:28:55;;;;;;;7.10;6.40;;;;;;;10.47;55.75;95310.56;5013758;28;20451;-77
2022/04/15 01:31:22;;;;;;;8.23;6.40;;;;;;;10.41;56.38;95322.38;5013883;28;20434;-77
2022/04/15 01:33:49;;;;;;;7.80;6.10;;;;;;;10.33;57.16;95313.41;5013362;28;20455;-77
2022/04/15 01:36:15;;;;;;;10.10;6.07;;;;;;;10.16;57.25;95314.69;5013562;28;20451;-77
2022/04/15 01:38:42;;;;;;;6.10;5.50;;;;;;;10.07;57.15;95312.75;5014929;28;20448;-77
2022/04/15 01:41:10;;;;;;;6.60;5.10;;;;;;;10.02;57.45;95307.03;5016824;28;20448;-77
2022/04/15 01:43:37;;;;;;;7.70;5.77;;;;;;;10.06;57.73;95300.59;5017164;28;20487;-78
2022/04/15 01:46:04;;;;;;;7.03;6.33;;;;;;;9.98;57.57;95303.81;5017011;28;20472;-78
2022/04/15 01:48:31;;;;;;;7.70;5.40;;;;;;;9.91;57.79;95290.34;5016982;28;20954;-78
2022/04/15 01:50:58;;;;;;;6.63;5.87;;;;;;;9.94;57.40;95281.41;5017123;28;20451;-78
2022/04/15 01:53:25;;;;;;;7.60;5.90;;;;;;;9.92;57.70;95283.31;4982304;28;20446;-77
2022/04/15 01:55:52;;;;;;;10.83;6.17;;;;;;;9.94;57.19;95282.22;5016549;28;20455;-78
2022/04/15 01:58:20;;;;;;;7.80;6.10;;;;;;;9.92;57.88;95278.06;5016770;28;20444;-78
2022/04/15 02:00:47;;;;;;;6.50;5.40;;;;;;;9.90;57.50;95286.03;5016658;28;20443;-77
2022/04/15 02:03:14;;;;;;;7.10;5.93;;;;;;;9.87;57.44;95286.28;4965843;28;20479;-78
2022/04/15 02:05:40;;;;;;;7.30;5.37;;;;;;;9.83;57.05;95281.34;5016552;28;20823;-77
2022/04/15 02:08:08;;;;;;;6.50;5.53;;;;;;;9.72;57.95;95294.44;5016719;28;20447;-78
2022/04/15 02:10:35;;;;;;;7.80;5.60;;;;;;;9.58;58.74;95292.88;4981882;28;20442;-77
2022/04/15 02:13:01;;;;;;;7.60;5.30;;;;;;;9.59;58.42;95287.50;5016572;28;20808;-78
2022/04/15 02:15:30;;;;;;;8.73;6.30;;;;;;;9.59;59.18;95291.91;5016845;28;20438;-78
2022/04/15 02:17:57;;;;;;;7.77;5.77;;;;;;;9.51;58.63;95284.59;5016484;28;20459;-77
2022/04/15 02:20:24;;;;;;;6.20;5.10;;;;;;;9.32;59.02;95285.16;5016509;28;20502;-77
2022/04/15 02:22:54;;;;;;;10.03;6.80;;;;;;;9.20;59.52;95283.41;5016139;28;20490;-78
2022/04/15 02:25:21;;;;;;;6.20;5.57;;;;;;;8.96;60.26;95293.91;5016344;28;20451;-77
2022/04/15 02:27:48;;;;;;;12.57;6.70;;;;;;;9.08;59.91;95292.19;5016248;28;20440;-77
2022/04/15 02:30:14;;;;;;;8.43;6.50;;;;;;;9.23;59.30;95292.81;5016403;28;20454;-78
2022/04/15 02:32:43;;;;;;;7.57;6.43;;;;;;;9.32;58.66;95293.00;5016258;28;20466;-77
2022/04/15 02:35:10;;;;;;;7.03;6.33;;;;;;;9.52;58.56;95301.16;5015864;28;20447;-77
2022/04/15 02:37:37;;;;;;;8.17;6.40;;;;;;;9.71;58.40;95298.00;5015760;28;20455;-77
2022/04/15 02:40:06;;;;;;;12.13;6.37;;;;;;;9.82;57.63;95296.25;5016270;28;20785;-77
2022/04/15 02:42:35;;;;;;;11.17;6.40;;;;;;;9.91;57.01;95292.97;4965500;28;20486;-77
2022/04/15 02:45:03;;;;;;;7.03;5.87;;;;;;;10.05;56.55;95291.88;5016203;28;20570;-78
2022/04/15 02:47:30;;;;;;;6.30;5.70;;;;;;;10.13;56.64;95301.81;5015778;28;20454;-78
2022/04/15 02:49:59;;;;;;;6.90;6.00;;;;;;;10.10;56.92;95291.53;5015667;28;20467;-77
2022/04/15 02:52:26;;;;;;;8.43;6.00;;;;;;;10.15;56.35;95300.75;5015921;28;20787;-78
2022/04/15 02:54:53;;;;;;;9.23;6.57;;;;;;;10.19;56.02;95296.09;4981084;28;20443;-78
2022/04/15 02:57:21;;;;;;;13.17;6.50;;;;;;;10.24;56.07;95307.09;5015730;28;20539;-78
2022/04/15 02:59:48;;;;;;;7.23;5.60;;;;;;;10.23;56.39;95302.81;5015802;28;20458;-77
2022/04/15 03:02:15;;;;;;;12.00;5.80;;;;;;;10.15;56.69;95292.88;4980810;28;20436;-78
2022/04/15 03:04:41;;;;;;;6.10;5.07;;;;;;;10.06;56.15;95297.97;5015180;28;20451;-77
2022/04/15 03:07:10;;;;;;;6.70;5.60;;;;;;;10.00;56.10;95298.44;5015138;28;20763;-76
2022/04/15 03:09:37;;;;;;;6.13;5.30;;;;;;;9.97;57.83;95301.31;5015248;28;20204;-76
2022/04/15 03:12:04;;;;;;;11.53;7.90;;;;;;;9.98;57.23;95300.34;5015337;28;20530;-78
2022/04/15 03:14:31;;;;;;;26.37;13.13;;;;;;;9.92;56.10;95292.00;5015117;28;20466;-77
2022/04/15 03:16:58;;;;;;;11.73;7.33;;;;;;;9.93;56.30;95298.09;5014834;28;20856;-77
2022/04/15 03:19:25;;;;;;;10.10;6.07;;;;;;;9.90;56.85;95291.28;5015243;28;20469;-78
2022/04/15 03:21:52;;;;;;;7.53;5.97;;;;;;;9.86;56.97;95289.84;5015304;28;20456;-77
2022/04/15 03:24:20;;;;;;;6.27;5.20;;;;;;;9.81;57.01;95297.19;5015075;28;20582;-78
2022/04/15 03:26:47;;;;;;;6.93;5.30;;;;;;;9.75;56.92;95292.44;4980563;28;20440;-78
2022/04/15 03:29:14;;;;;;;9.20;6.10;;;;;;;9.78;57.06;95291.34;5015047;28;20444;-78
2022/04/15 03:31:41;;;;;;;6.87;5.17;;;;;;;9.75;56.97;95291.59;4980416;28;20440;-78
2022/04/15 03:34:07;;;;;;;5.23;4.63;;;;;;;9.68;57.19;95293.00;5015057;28;20439;-78
2022/04/15 03:36:34;;;;;;;8.80;5.37;;;;;;;9.66;57.17;95295.75;5015348;28;20925;-78
2022/04/15 03:39:01;;;;;;;5.67;5.00;;;;;;;9.55;57.08;95298.34;5013326;28;20452;-78
2022/04/15 03:41:29;;;;;;;7.50;5.40;;;;;;;9.38;58.05;95296.94;5015070;28;20451;-78
2022/04/15 03:43:56;;;;;;;6.13;4.80;;;;;;;9.16;59.36;95304.69;5014529;28;21008;-78
2022/04/15 03:46:23;;;;;;;8.83;5.70;;;;;;;9.12;59.60;95309.31;4996622;28;20471;-78
2022/04/15 03:48:50;;;;;;;5.57;4.90;;;;;;;8.99;60.12;95298.91;4996274;28;20460;-78
2022/04/15 03:51:17;;;;;;;5.87;5.33;;;;;;;8.99;60.26;95311.16;5014981;28;20424;-78
2022/04/15 03:53:44;;;;;;;9.07;6.10;;;;;;;8.91;60.51;95305.63;5014724;28;20440;-79
2022/04/15 03:56:11;;;;;;;6.90;5.40;;;;;;;8.86;61.21;95305.97;5014573;28;20543;-79
2022/04/15 03:58:39;;;;;;;5.70;4.97;;;;;;;8.86;61.22;95312.97;5014310;28;21099;-78
2022/04/15 04:01:06;;;;;;;9.87;6.17;;;;;;;8.90;61.33;95309.19;5014252;28;20944;-78
2022/04/15 04:03:33;;;;;;;10.80;5.77;;;;;;;8.93;60.33;95314.19;5014220;28;20490;-79
2022/04/15 04:05:59;;;;;;;6.63;5.30;;;;;;;9.04;60.16;95322.13;5014437;28;20448;-78
2022/04/15 04:08:26;;;;;;;6.97;5.30;;;;;;;9.10;59.74;95315.63;5014761;28;20469;-78
2022/04/15 04:10:53;;;;;;;8.47;6.40;;;;;;;9.19;59.18;95313.16;5014731;28;20471;-78
2022/04/15 04:13:20;;;;;;;4.77;4.23;;;;;;;9.29;58.89;95322.03;5014006;28;20949;-78
2022/04/15 04:15:48;;;;;;;5.50;4.67;;;;;;;9.48;58.79;95324.13;4979645;28;20913;-78
2022/04/15 04:18:20;;;;;;;8.93;5.93;;;;;;;9.61;58.14;95327.53;5014221;28;20435;-78
2022/04/15 04:20:47;;;;;;;6.07;5.07;;;;;;;9.81;57.86;95323.41;5014512;28;20428;-78
2022/04/15 04:23:14;;;;;;;5.67;4.43;;;;;;;10.04;57.20;95320.84;5014379;28;20482;-78
2022/04/15 04:25:41;;;;;;;10.50;5.60;;;;;;;10.15;56.65;95326.13;5013769;28;20454;-78
2022/04/15 04:28:07;;;;;;;12.20;5.50;;;;;;;10.17;55.99;95324.22;5013905;28;20448;-78
2022/04/15 04:30:34;;;;;;;8.47;5.97;;;;;;;10.22;56.45;95324.75;5013615;28;20454;-78
2022/04/15 04:33:03;;;;;;;8.00;6.00;;;;;;;10.37;56.69;95320.94;5013727;28;20450;-78
2022/04/15 04:35:29;;;;;;;11.60;6.40;;;;;;;10.74;55.79;95318.09;5014032;28;20448;-78
2022/04/15 04:37:56;;;;;;;6.90;6.00;;;;;;;11.14;54.59;95324.47;5008467;28;20453;-78
2022/04/15 04:40:23;;;;;;;8.20;6.10;;;;;;;11.69;52.00;95333.13;4944179;28;20828;-79
2022/04/15 04:42:51;;;;;;;11.20;5.53;;;;;;;12.34;51.38;95329.44;4999714;28;20443;-79
2022/04/15 04:45:19;;;;;;;11.77;6.40;;;;;;;12.93;48.90;95339.28;5013262;28;20472;-78
2022/04/15 04:47:47;;;;;;;7.07;5.37;;;;;;;13.31;51.59;95325.44;5013817;28;20444;-78
2022/04/15 04:50:16;;;;;;;8.07;5.53;;;;;;;13.78;50.51;95332.66;5013768;28;20458;-79
2022/04/15 04:52:43;;;;;;;6.53;5.83;;;;;;;14.12;47.12;95331.25;4995645;28;20448;-77
2022/04/15 04:55:10;;;;;;;12.77;5.93;;;;;;;14.30;50.70;95328.75;5014015;28;20448;-78
2022/04/15 04:57:38;;;;;;;6.10;5.50;;;;;;;14.37;47.20;95332.47;4979192;28;20976;-78
2022/04/15 05:00:07;;;;;;;4.80;4.33;;;;;;;14.45;44.84;95332.63;5013691;28;20454;-78
2022/04/15 05:02:34;;;;;;;5.47;4.90;;;;;;;14.59;45.76;95343.72;5013670;28;20498;-78
2022/04/15 05:05:01;;;;;;;10.47;5.77;;;;;;;14.73;44.10;95337.97;5012626;28;20494;-79
2022/04/15 05:07:29;;;;;;;5.93;4.63;;;;;;;14.72;43.73;95328.38;4943768;28;20448;-78
2022/04/15 05:09:56;;;;;;;5.30;4.80;;;;;;;14.87;44.55;95335.69;4999548;28;20462;-78
2022/04/15 05:12:23;;;;;;;5.43;4.93;;;;;;;14.90;43.92;95329.28;4963980;28;20940;-78
2022/04/15 05:14:50;;;;;;;5.20;4.67;;;;;;;15.07;44.50;95333.81;5009716;28;20831;-78
2022/04/15 05:17:17;;;;;;;8.70;5.50;;;;;;;15.33;42.12;95328.66;5016013;28;20796;-78
2022/04/15 05:19:44;;;;;;;8.50;5.03;;;;;;;15.55;41.89;95334.50;4982581;28;20450;-77
2022/04/15 05:22:11;;;;;;;5.97;5.00;;;;;;;15.76;41.33;95335.91;5017013;28;20802;-77
2022/04/15 05:24:40;;;;;;;9.17;4.57;;;;;;;16.07;40.78;95336.38;5016468;28;20487;-77
2022/04/15 05:27:07;;;;;;;10.07;5.90;;;;;;;16.45;39.92;95336.16;5016915;28;20530;-77
2022/04/15 05:29:34;;;;;;;5.70;4.43;;;;;;;16.84;39.16;95336.59;5016944;28;20454;-77
2022/04/15 05:32:02;;;;;;;6.33;5.37;;;;;;;17.12;38.08;95330.13;5016896;28;20451;-77
2022/04/15 05:34:29;;;;;;;6.90;5.00;;;;;;;17.53;37.90;95333.75;5016693;28;20459;-77
2022/04/15 05:36:56;;;;;;;8.93;5.00;;;;;;;17.72;37.31;95332.66;5016555;28;20923;-78
2022/04/15 05:39:23;;;;;;;7.97;4.87;;;;;;;17.89;37.00;95329.03;5016678;28;20443;-78
2022/04/15 05:41:51;;;;;;;5.27;4.77;;;;;;;18.09;36.71;95332.22;5016640;28;20455;-78
2022/04/15 05:44:26;;;;;;;7.97;5.40;;;;;;;18.26;35.52;95325.91;5016449;28;20499;-77
2022/04/15 05:46:53;;;;;;;9.20;5.33;;;;;;;18.38;35.23;95318.41;4968468;28;20462;-78
2022/04/15 05:49:20;;;;;;;6.97;5.60;;;;;;;18.45;35.06;95326.53;5016469;28;20451;-78
2022/04/15 05:51:46;;;;;;;10.53;5.63;;;;;;;18.51;34.82;95318.75;5016506;28;20458;-77
2022/04/15 05:54:13;;;;;;;15.43;7.17;;;;;;;18.45;35.85;95323.88;5016915;28;20447;-77
2022/04/15 05:56:40;;;;;;;12.87;9.20;;;;;;;18.58;35.58;95319.75;5016581;28;20454;-78
2022/04/15 05:59:09;;;;;;;12.00;7.27;;;;;;;18.81;35.61;95324.38;5016382;28;20439;-77
2022/04/15 06:01:35;;;;;;;13.90;8.80;;;;;;;18.77;35.49;95323.03;5016749;28;20447;-78
2022/04/15 06:04:03;;;;;;;20.87;10.63;;;;;;;18.95;35.35;95321.00;5016672;28;20509;-77
2022/04/15 06:06:29;;;;;;;15.70;7.90;;;;;;;19.11;35.29;95315.66;5016029;28;20455;-79
2022/04/15 06:08:56;;;;;;;25.90;8.10;;;;;;;19.16;35.05;95325.78;5016388;28;20562;-78
2022/04/15 06:11:23;;;;;;;15.07;8.60;;;;;;;19.16;35.01;95318.63;5016216;28;20454;-77
2022/04/15 06:13:50;;;;;;;14.13;7.60;;;;;;;19.35;34.35;95327.16;4981577;28;20458;-77
2022/04/15 06:16:20;;;;;;;22.90;8.50;;;;;;;19.52;34.36;95315.47;5015950;28;20474;-77
2022/04/15 06:18:48;;;;;;;11.13;8.37;;;;;;;19.84;33.82;95311.81;5016078;28;20455;-77
2022/04/15 06:21:14;;;;;;;18.17;9.40;;;;;;;20.05;33.63;95314.66;5015990;28;20453;-77
2022/04/15 06:23:41;;;;;;;13.73;9.47;;;;;;;20.23;33.66;95321.50;5015644;28;20487;-77
2022/04/15 06:26:08;;;;;;;12.73;9.07;;;;;;;20.09;33.09;95323.13;5015830;28;20455;-78
2022/04/15 06:28:35;;;;;;;12.80;8.43;;;;;;;20.17;33.53;95325.72;5015849;28;20454;-78
2022/04/15 06:31:02;;;;;;;19.40;9.70;;;;;;;20.32;32.83;95326.63;5015898;28;20459;-77
2022/04/15 06:33:30;;;;;;;16.30;8.60;;;;;;;20.20;32.68;95317.38;5016062;28;20439;-77
2022/04/15 06:35:57;;;;;;;13.03;8.73;;;;;;;19.64;32.89;95311.41;5015830;28;20443;-77
2022/04/15 06:38:24;;;;;;;17.83;11.30;;;;;;;19.73;33.20;95307.72;5016051;28;20455;-77
2022/04/15 06:40:51;;;;;;;16.10;8.27;;;;;;;19.75;33.86;95313.69;4964959;28;20440;-77
2022/04/15 06:43:18;;;;;;;20.23;9.63;;;;;;;19.60;33.88;95314.59;5015580;28;20443;-77
2022/04/15 06:45:45;;;;;;;15.30;8.40;;;;;;;19.82;33.72;95313.81;5015448;28;20479;-77
2022/04/15 06:48:11;;;;;;;17.63;9.57;;;;;;;19.88;33.46;95318.44;5015711;28;20440;-77
2022/04/15 06:50:40;;;;;;;14.50;9.30;;;;;;;19.75;33.82;95312.88;5015332;28;20443;-77
2022/04/15 06:53:07;;;;;;;13.77;9.30;;;;;;;19.90;34.14;95304.94;5015710;28;20451;-77
2022/04/15 06:55:34;;;;;;;17.10;10.80;;;;;;;19.52;33.91;95306.66;5015655;28;20451;-77
2022/04/15 06:58:01;;;;;;;13.03;8.23;;;;;;;19.23;34.54;95309.94;5015606;28;20440;-78
2022/04/15 07:00:28;;;;;;;20.60;10.87;;;;;;;19.39;34.90;95313.38;5015342;28;20483;-77
2022/04/15 07:02:55;;;;;;;13.90;11.90;;;;;;;19.42;34.77;95304.22;5015544;28;20573;-77
2022/04/15 07:05:23;;;;;;;16.13;10.50;;;;;;;19.60;35.00;95299.47;5015407;28;20483;-77
2022/04/15 07:07:52;;;;;;;19.27;10.70;;;;;;;19.91;34.80;95301.25;5014995;28;20927;-77
2022/04/15 07:10:19;;;;;;;19.80;12.40;;;;;;;19.39;34.53;95299.25;5015462;28;20805;-77
2022/04/15 07:12:46;;;;;;;21.17;11.60;;;;;;;19.62;34.85;95305.44;5015037;28;20452;-77
2022/04/15 07:15:13;;;;;;;16.63;11.53;;;;;;;19.90;34.84;95300.44;5015071;28;20805;-77
2022/04/15 07:17:39;;;;;;;19.40;10.57;;;;;;;20.02;33.27;95300.88;5015264;28;20454;-77
2022/04/15 07:20:08;;;;;;;14.30;10.93;;;;;;;20.20;33.79;95298.72;4964781;28;20451;-77
2022/04/15 07:22:34;;;;;;;20.07;11.83;;;;;;;20.14;32.83;95298.59;5015038;28;20467;-77
2022/04/15 07:25:03;;;;;;;25.83;11.10;;;;;;;20.17;32.38;95300.91;4964808;28;20487;-77
2022/04/15 07:27:30;;;;;;;19.40;10.03;;;;;;;20.09;32.47;95304.47;4964487;28;20534;-77
2022/04/15 07:29:57;;;;;;;18.70;10.80;;;;;;;20.10;33.29;95296.31;5015233;28;20453;-77
2022/04/15 07:32:27;;;;;;;14.43;10.07;;;;;;;19.86;33.30;95303.63;5014593;28;20458;-78
2022/04/15 07:34:54;;;;;;;28.03;10.20;;;;;;;20.09;32.36;95297.31;5014492;28;20455;-77
2022/04/15 07:37:22;;;;;;;20.93;8.97;;;;;;;20.01;32.34;95293.88;5013949;28;20447;-77
2022/04/15 07:39:49;;;;;;;11.83;9.70;;;;;;;20.15;32.03;95292.25;5014646;28;20903;-78
2022/04/15 07:42:17;;;;;;;15.50;10.27;;;;;;;20.43;32.45;95290.72;5015084;28;20443;-77
2022/04/15 07:44:45;;;;;;;16.87;9.27;;;;;;;20.36;31.77;95287.09;5014779;28;20503;-77
2022/04/15 07:47:12;;;;;;;16.97;7.67;;;;;;;20.51;31.41;95292.47;5014440;28;20498;-77
2022/04/15 07:49:39;;;;;;;19.93;8.77;;;;;;;20.77;30.90;95292.88;5014488;28;20436;-77
2022/04/15 07:52:08;;;;;;;18.47;8.33;;;;;;;20.47;30.76;95284.00;5014262;28;20466;-77
2022/04/15 07:54:35;;;;;;;14.53;8.67;;;;;;;20.82;31.15;95279.03;4979786;28;20448;-77
2022/04/15 07:57:02;;;;;;;15.97;8.00;;;;;;;20.95;30.42;95274.69;5014612;28;20440;-78
2022/04/15 07:59:30;;;;;;;13.90;7.93;;;;;;;21.09;30.65;95281.00;5014271;28;20447;-77
2022/04/15 08:01:58;;;;;;;15.30;8.53;;;;;;;20.65;30.76;95279.19;5014774;28;20542;-77
2022/04/15 08:04:25;;;;;;;16.90;9.67;;;;;;;20.90;31.32;95270.91;5014044;28;20540;-78
2022/04/15 08:06:52;;;;;;;15.30;8.93;;;;;;;21.03;30.54;95279.91;5014527;28;20447;-77
2022/04/15 08:09:20;;;;;;;17.00;7.73;;;;;;;20.83;30.47;95270.84;5014232;28;20451;-77
2022/04/15 08:11:46;;;;;;;13.97;8.10;;;;;;;20.97;30.77;95270.00;5014343;28;20451;-78
2022/04/15 08:14:13;;;;;;;17.60;8.30;;;;;;;21.09;30.17;95264.16;5014068;28;20456;-77
2022/04/15 08:16:42;;;;;;;9.93;7.20;;;;;;;21.26;30.20;95265.66;5014283;28;20443;-77
2022/04/15 08:19:09;;;;;;;13.57;9.10;;;;;;;21.32;29.84;95265.75;5014142;28;20448;-77
2022/04/15 08:21:36;;;;;;;25.83;8.40;;;;;;;21.61;29.91;95259.50;5013806;28;20455;-77
2022/04/15 08:24:02;;;;;;;19.93;8.77;;;;;;;21.83;29.45;95256.84;5013833;28;20491;-77
2022/04/15 08:26:30;;;;;;;11.70;7.57;;;;;;;21.98;28.72;95257.66;4963660;28;20522;-77
2022/04/15 08:28:57;;;;;;;17.63;9.30;;;;;;;22.14;28.92;95252.03;5013668;28;20771;-77
2022/04/15 08:31:24;;;;;;;14.63;8.20;;;;;;;22.07;28.92;95256.50;5013894;28;20443;-78
2022/04/15 08:33:52;;;;;;;14.40;7.90;;;;;;;22.10;28.24;95258.81;5014084;28;20443;-77
2022/04/15 08:36:19;;;;;;;19.93;9.60;;;;;;;22.00;28.82;95257.44;5013884;28;20462;-78
2022/04/15 08:38:46;;;;;;;24.10;8.97;;;;;;;21.59;28.95;95245.50;4963487;28;20456;-77
2022/04/15 08:41:14;;;;;;;10.40;7.90;;;;;;;21.47;28.52;95248.88;5013697;28;20923;-77
2022/04/15 08:43:43;;;;;;;15.30;6.83;;;;;;;21.46;27.05;95237.38;5013214;28;20465;-77
2022/04/15 08:46:12;;;;;;;20.87;8.17;;;;;;;21.54;28.79;95247.94;5013344;28;20491;-78
2022/04/15 08:48:40;;;;;;;14.10;7.97;;;;;;;21.65;28.82;95241.25;5013266;28;20440;-77
2022/04/15 08:51:09;;;;;;;14.43;7.60;;;;;;;21.82;28.91;95234.66;5013210;28;20444;-77
2022/04/15 08:53:38;;;;;;;13.17;9.30;;;;;;;21.96;27.90;95232.94;5013600;28;20451;-77
2022/04/15 08:56:05;;;;;;;19.33;9.13;;;;;;;21.83;28.60;95232.81;5013738;28;20454;-77
2022/04/15 08:58:32;;;;;;;23.20;9.80;;;;;;;21.83;28.80;95227.47;5013657;28;20452;-77
2022/04/15 09:00:59;;;;;;;17.17;9.63;;;;;;;21.85;29.07;95228.09;5013584;28;20442;-77
2022/04/15 09:03:26;;;;;;;9.27;7.40;;;;;;;21.60;28.44;95224.97;5013300;28;20524;-77
2022/04/15 09:05:53;;;;;;;17.53;9.47;;;;;;;21.77;29.26;95225.56;5013879;28;20467;-78
2022/04/15 09:08:24;;;;;;;17.33;9.20;;;;;;;21.81;28.25;95206.28;5013173;28;20542;-77
2022/04/15 09:10:59;;;;;;;8.00;5.70;;;;;;;21.62;27.03;95201.56;4979487;28;20447;-77
2022/04/15 09:13:34;;;;;;;11.13;6.50;;;;;;;21.75;27.27;95200.91;5013388;28;20918;-77
2022/04/15 09:16:01;;;;;;;13.30;5.97;;;;;;;21.63;27.34;95193.38;5008757;28;20857;-77
2022/04/15 09:18:31;;;;;;;10.80;6.77;;;;;;;21.52;27.79;95196.56;5003691;28;20436;-78
2022/04/15 09:21:18;;;;;;;10.53;6.43;;;;;;;21.09;28.37;95186.78;4998931;28;20448;-77
2022/04/15 09:23:49;;;;;;;12.90;6.03;;;;;;;21.27;28.16;95182.72;4993692;28;20936;-77
2022/04/15 09:26:16;;;;;;;8.73;6.57;;;;;;;21.46;27.87;95169.78;4943139;28;20535;-77
2022/04/15 09:28:43;;;;;;;11.80;5.20;;;;;;;21.61;28.62;95173.22;4993496;28;20508;-77
2022/04/15 09:31:14;;;;;;;15.50;6.80;;;;;;;21.63;26.97;95166.66;4993989;28;20444;-77
2022/04/15 09:33:55;;;;;;;9.67;5.93;;;;;;;21.72;26.95;95170.03;4993732;28;20516;-77
2022/04/15 09:36:24;;;;;;;13.40;5.97;;;;;;;21.69;29.25;95158.91;4993690;28;20444;-78
2022/04/15 09:38:56;;;;;;;11.27;6.30;;;;;;;21.64;29.94;95156.81;4943101;28;20924;-77
2022/04/15 09:41:24;;;;;;;12.23;6.93;;;;;;;21.75;28.30;95158.97;4993750;28;20460;-77
2022/04/15 09:43:52;;;;;;;15.70;6.13;;;;;;;21.85;28.33;95158.63;4993282;28;20455;-77
2022/04/15 09:46:20;;;;;;;7.10;5.80;;;;;;;21.90;28.88;95148.19;4993306;28;20628;-78
2022/04/15 09:49:05;;;;;;;11.17;6.73;;;;;;;21.82;28.57;95138.47;4993422;28;20459;-77
2022/04/15 09:51:34;;;;;;;16.30;6.40;;;;;;;21.64;29.11;95138.09;4993587;28;20444;-78
2022/04/15 09:54:04;;;;;;;9.10;5.67;;;;;;;21.81;28.20;95128.81;4958908;28;20452;-78
2022/04/15 09:56:34;;;;;;;5.43;4.77;;;;;;;21.89;28.52;95125.16;4993834;28;20460;-77
2022/04/15 09:59:08;;;;;;;18.27;5.20;;;;;;;21.83;28.03;95126.78;4994277;28;20528;-77
2022/04/15 10:01:39;;;;;;;16.70;5.73;;;;;;;21.85;28.25;95121.22;4997359;28;20452;-78
2022/04/15 10:04:06;;;;;;;5.27;4.83;;;;;;;21.63;27.76;95113.25;5001800;28;20957;-77
2022/04/15 10:06:33;;;;;;;8.57;4.40;;;;;;;21.52;29.14;95105.75;5006362;28;20486;-77
2022/04/15 10:09:03;;;;;;;12.97;5.43;;;;;;;21.61;29.08;95104.59;5004763;28;20444;-77
2022/04/15 10:11:35;;;;;;;9.63;5.50;;;;;;;21.71;28.43;95092.78;4982607;28;20462;-77
2022/04/15 10:14:03;;;;;;;12.67;5.33;;;;;;;21.70;28.54;95089.28;5016199;28;20941;-77
2022/04/15 10:16:32;;;;;;;10.33;6.27;;;;;;;21.49;29.65;95078.63;5016473;28;20439;-77
2022/04/15 10:19:01;;;;;;;13.53;5.20;;;;;;;21.18;29.57;95086.94;5016430;28;20883;-78
2022/04/15 10:21:31;;;;;;;10.83;5.87;;;;;;;21.13;30.16;95084.00;5016308;28;20439;-78
2022/04/15 10:23:59;;;;;;;9.20;5.50;;;;;;;21.19;30.65;95089.41;5016116;28;20455;-77
2022/04/15 10:26:27;;;;;;;13.97;6.67;;;;;;;21.17;30.29;95080.75;5015935;28;20495;-78
2022/04/15 10:28:55;;;;;;;8.30;5.27;;;;;;;21.33;30.36;95077.03;5016049;28;20953;-78
2022/04/15 10:31:26;;;;;;;9.30;5.90;;;;;;;21.42;29.54;95067.88;5016301;28;20498;-78
2022/04/15 10:33:55;;;;;;;12.43;6.40;;;;;;;21.50;29.94;95069.59;5016402;28;20526;-77
2022/04/15 10:36:23;;;;;;;6.60;5.97;;;;;;;21.65;29.85;95068.47;5016076;28;20545;-78
2022/04/15 10:39:12;;;;;;;10.80;6.13;;;;;;;21.78;29.78;95066.94;5016357;28;20793;-77
2022/04/15 10:41:54;;;;;;;8.00;5.17;;;;;;;21.84;29.44;95060.81;5016126;28;20458;-78
2022/04/15 10:44:32;;;;;;;16.67;5.60;;;;;;;21.95;29.16;95060.25;5015906;28;20456;-77
2022/04/15 10:47:00;;;;;;;6.93;5.53;;;;;;;22.01;30.25;95051.47;5015798;28;20443;-77
2022/04/15 10:49:30;;;;;;;10.07;5.73;;;;;;;21.99;29.12;95050.03;5015992;28;20447;-78
2022/04/15 10:52:00;;;;;;;5.37;4.87;;;;;;;21.96;28.67;95057.38;5015964;28;20455;-77
2022/04/15 10:54:42;;;;;;;8.37;5.43;;;;;;;22.01;28.75;95047.97;5015819;28;20509;-77
2022/04/15 10:57:14;;;;;;;5.57;4.97;;;;;;;21.80;28.09;95043.50;5015613;28;20447;-77
2022/04/15 11:02:42;;;;;;;8.47;5.80;;;;;;;21.92;29.90;95036.59;5015495;28;20438;-77
2022/04/15 11:05:13;;;;;;;7.63;5.63;;;;;;;22.08;28.38;95030.97;4981148;28;20486;-77
2022/04/15 11:07:49;;;;;;;8.50;5.40;;;;;;;22.21;28.08;95031.03;5015296;28;20992;-78
2022/04/15 11:10:18;;;;;;;12.17;5.03;;;;;;;22.33;27.66;95027.81;5015610;28;20465;-78
2022/04/15 11:12:46;;;;;;;8.57;4.77;;;;;;;22.31;27.02;95020.00;5015689;28;20440;-77
2022/04/15 11:15:15;;;;;;;6.17;5.30;;;;;;;22.28;26.21;95022.25;5015767;28;20447;-77
2022/04/15 11:17:52;;;;;;;14.10;4.90;;;;;;;22.13;25.97;95019.69;5015083;28;20463;-77
2022/04/15 11:20:19;;;;;;;13.97;5.60;;;;;;;22.23;25.87;95012.94;5015262;28;20454;-77
2022/04/15 11:22:46;;;;;;;12.80;5.80;;;;;;;22.36;26.40;95027.41;5015095;28;20463;-78
2022/04/15 11:25:14;;;;;;;8.47;4.90;;;;;;;;;;5014780;28;20494;-78
2022/04/15 11:27:42;;;;;;;7.13;5.67;;;;;;;22.52;26.35;95009.16;5015040;28;20458;-78
2022/04/15 11:30:15;;;;;;;10.30;5.67;;;;;;;22.75;26.84;95005.31;5014754;28;20447;-77
2022/04/15 11:32:51;;;;;;;11.80;5.70;;;;;;;22.89;26.03;95006.22;5014877;28;20436;-78
2022/04/15 11:35:28;;;;;;;8.27;5.43;;;;;;;22.88;25.83;95007.25;5015101;28;20454;-78
2022/04/15 11:37:58;;;;;;;11.77;5.03;;;;;;;22.94;25.22;95004.56;5015049;28;20506;-78
2022/04/15 11:40:28;;;;;;;8.53;6.20;;;;;;;22.84;24.83;94998.78;5015355;28;20444;-78